sensor_id;sensor_type;location;lat;lon;timestamp;P1;durP1;ratioP1;P2;durP2;ratioP2
8714;SDS011;4394;51.208;8.904;2023-04-15T00:00:13;10.47;;;7.90;;
8714;SDS011;4394;51.208;8.904;2023-04-15T00:03:03;13.10;;;8.07;;
8714;SDS011;4394;51.208;8.904;2023-04-15T00:05:53;12.30;;;9.00;;
8714;SDS011;4394;51.208;8.904;2023-04-15T00:08:43;12.23;;;7.97;;
8714;SDS011;4394;51.208;8.904;2023-04-15T00:11:34;11.17;;;8.10;;
8714;SDS011;4394;51.208;8.904;2023-04-15T00:14:25;10.13;;;7.43;;
8714;SDS011;4394;51.208;8.904;2023-04-15T00:17:14;13.10;;;7.43;;
8714;SDS011;4394;51.208;8.904;2023-04-15T00:20:05;10.97;;;7.43;;
8714;SDS011;4394;51.208;8.904;2023-04-15T00:22:54;9.87;;;7.40;;
8714;SDS011;4394;51.208;8.904;2023-04-15T00:25:46;9.57;;;6.87;;
8714;SDS011;4394;51.208;8.904;2023-04-15T00:28:36;8.70;;;6.87;;
8714;SDS011;4394;51.208;8.904;2023-04-15T00:31:26;11.27;;;7.20;;
8714;SDS011;4394;51.208;8.904;2023-04-15T00:34:16;8.83;;;6.87;;
8714;SDS011;4394;51.208;8.904;2023-04-15T00:37:08;8.90;;;7.17;;
8714;SDS011;4394;51.208;8.904;2023-04-15T00:39:57;10.37;;;6.40;;
8714;SDS011;4394;51.208;8.904;2023-04-15T00:42:47;9.27;;;6.43;;
8714;SDS011;4394;51.208;8.904;2023-04-15T00:45:36;9.13;;;6.90;;
8714;SDS011;4394;51.208;8.904;2023-04-15T00:48:27;8.40;;;6.83;;
8714;SDS011;4394;51.208;8.904;2023-04-15T00:51:17;8.87;;;6.63;;
8714;SDS011;4394;51.208;8.904;2023-04-15T00:54:06;10.73;;;7.20;;
8714;SDS011;4394;51.208;8.904;2023-04-15T00:56:56;10.57;;;6.60;;
8714;SDS011;4394;51.208;8.904;2023-04-15T00:59:46;10.10;;;6.90;;
8714;SDS011;4394;51.208;8.904;2023-04-15T01:02:36;11.17;;;7.03;;
8714;SDS011;4394;51.208;8.904;2023-04-15T01:05:27;10.50;;;7.30;;
8714;SDS011;4394;51.208;8.904;2023-04-15T01:08:18;8.03;;;6.70;;
8714;SDS011;4394;51.208;8.904;2023-04-15T01:11:07;10.73;;;6.63;;
8714;SDS011;4394;51.208;8.904;2023-04-15T01:13:58;9.40;;;6.60;;
8714;SDS011;4394;51.208;8.904;2023-04-15T01:16:47;9.43;;;6.80;;
8714;SDS011;4394;51.208;8.904;2023-04-15T01:19:37;9.97;;;6.47;;
8714;SDS011;4394;51.208;8.904;2023-04-15T01:22:29;9.23;;;6.77;;
8714;SDS011;4394;51.208;8.904;2023-04-15T01:25:27;8.40;;;6.33;;
8714;SDS011;4394;51.208;8.904;2023-04-15T01:28:21;9.33;;;6.43;;
8714;SDS011;4394;51.208;8.904;2023-04-15T01:31:10;9.00;;;6.43;;
8714;SDS011;4394;51.208;8.904;2023-04-15T01:34:00;9.40;;;7.13;;
8714;SDS011;4394;51.208;8.904;2023-04-15T01:36:50;8.97;;;6.97;;
8714;SDS011;4394;51.208;8.904;2023-04-15T01:39:40;9.30;;;6.80;;
8714;SDS011;4394;51.208;8.904;2023-04-15T01:42:32;9.43;;;7.17;;
8714;SDS011;4394;51.208;8.904;2023-04-15T01:45:22;8.90;;;7.17;;
8714;SDS011;4394;51.208;8.904;2023-04-15T01:48:11;11.13;;;7.50;;
8714;SDS011;4394;51.208;8.904;2023-04-15T01:51:00;9.87;;;7.13;;
8714;SDS011;4394;51.208;8.904;2023-04-15T01:53:49;9.83;;;7.43;;
8714;SDS011;4394;51.208;8.904;2023-04-15T01:56:39;12.30;;;7.03;;
8714;SDS011;4394;51.208;8.904;2023-04-15T01:59:29;11.47;;;8.07;;
8714;SDS011;4394;51.208;8.904;2023-04-15T02:02:20;10.53;;;7.47;;
8714;SDS011;4394;51.208;8.904;2023-04-15T02:05:10;11.63;;;7.80;;
8714;SDS011;4394;51.208;8.904;2023-04-15T02:07:59;12.20;;;7.47;;
8714;SDS011;4394;51.208;8.904;2023-04-15T02:10:47;10.33;;;7.40;;
8714;SDS011;4394;51.208;8.904;2023-04-15T02:13:37;10.73;;;7.53;;
8714;SDS011;4394;51.208;8.904;2023-04-15T02:16:28;10.90;;;7.20;;
8714;SDS011;4394;51.208;8.904;2023-04-15T02:19:16;11.10;;;7.73;;
8714;SDS011;4394;51.208;8.904;2023-04-15T02:22:05;9.93;;;7.33;;
8714;SDS011;4394;51.208;8.904;2023-04-15T02:24:55;13.00;;;8.23;;
8714;SDS011;4394;51.208;8.904;2023-04-15T02:27:44;12.60;;;7.90;;
8714;SDS011;4394;51.208;8.904;2023-04-15T02:30:33;11.00;;;7.60;;
8714;SDS011;4394;51.208;8.904;2023-04-15T02:33:24;11.80;;;8.30;;
8714;SDS011;4394;51.208;8.904;2023-04-15T02:36:13;9.53;;;7.50;;
8714;SDS011;4394;51.208;8.904;2023-04-15T02:39:03;12.70;;;9.00;;
8714;SDS011;4394;51.208;8.904;2023-04-15T02:41:52;11.23;;;8.07;;
8714;SDS011;4394;51.208;8.904;2023-04-15T02:44:44;11.60;;;8.30;;
8714;SDS011;4394;51.208;8.904;2023-04-15T02:47:33;12.10;;;8.43;;
8714;SDS011;4394;51.208;8.904;2023-04-15T02:50:24;12.33;;;7.87;;
8714;SDS011;4394;51.208;8.904;2023-04-15T02:53:13;9.83;;;7.70;;
8714;SDS011;4394;51.208;8.904;2023-04-15T02:56:03;11.13;;;7.77;;
8714;SDS011;4394;51.208;8.904;2023-04-15T02:58:54;11.63;;;8.27;;
8714;SDS011;4394;51.208;8.904;2023-04-15T03:01:43;11.77;;;8.50;;
8714;SDS011;4394;51.208;8.904;2023-04-15T03:04:32;12.13;;;8.37;;
8714;SDS011;4394;51.208;8.904;2023-04-15T03:07:23;12.57;;;7.90;;
8714;SDS011;4394;51.208;8.904;2023-04-15T03:10:12;12.10;;;7.80;;
8714;SDS011;4394;51.208;8.904;2023-04-15T03:13:02;9.53;;;7.27;;
8714;SDS011;4394;51.208;8.904;2023-04-15T03:15:51;12.40;;;7.53;;
8714;SDS011;4394;51.208;8.904;2023-04-15T03:18:40;11.27;;;7.43;;
8714;SDS011;4394;51.208;8.904;2023-04-15T03:21:29;10.37;;;7.87;;
8714;SDS011;4394;51.208;8.904;2023-04-15T03:24:21;11.00;;;7.60;;
8714;SDS011;4394;51.208;8.904;2023-04-15T03:27:10;10.17;;;7.80;;
8714;SDS011;4394;51.208;8.904;2023-04-15T03:30:00;10.60;;;7.73;;
8714;SDS011;4394;51.208;8.904;2023-04-15T03:32:49;10.30;;;7.27;;
8714;SDS011;4394;51.208;8.904;2023-04-15T03:35:38;10.77;;;7.67;;
8714;SDS011;4394;51.208;8.904;2023-04-15T03:38:28;13.73;;;7.77;;
8714;SDS011;4394;51.208;8.904;2023-04-15T03:41:18;11.00;;;7.67;;
8714;SDS011;4394;51.208;8.904;2023-04-15T03:44:10;11.77;;;7.93;;
8714;SDS011;4394;51.208;8.904;2023-04-15T03:47:00;9.83;;;7.17;;
8714;SDS011;4394;51.208;8.904;2023-04-15T03:49:49;9.80;;;7.60;;
8714;SDS011;4394;51.208;8.904;2023-04-15T03:52:40;9.47;;;7.33;;
8714;SDS011;4394;51.208;8.904;2023-04-15T03:55:28;9.33;;;6.80;;
8714;SDS011;4394;51.208;8.904;2023-04-15T03:58:18;10.17;;;7.17;;
8714;SDS011;4394;51.208;8.904;2023-04-15T04:01:08;9.90;;;7.23;;
8714;SDS011;4394;51.208;8.904;2023-04-15T04:03:57;10.10;;;7.33;;
8714;SDS011;4394;51.208;8.904;2023-04-15T04:06:46;11.33;;;7.43;;
8714;SDS011;4394;51.208;8.904;2023-04-15T04:09:35;10.97;;;7.67;;
8714;SDS011;4394;51.208;8.904;2023-04-15T04:12:26;10.13;;;7.40;;
8714;SDS011;4394;51.208;8.904;2023-04-15T04:15:17;10.70;;;7.27;;
8714;SDS011;4394;51.208;8.904;2023-04-15T04:18:06;11.67;;;8.20;;
8714;SDS011;4394;51.208;8.904;2023-04-15T04:20:56;9.10;;;6.87;;
8714;SDS011;4394;51.208;8.904;2023-04-15T04:23:46;11.97;;;8.00;;
8714;SDS011;4394;51.208;8.904;2023-04-15T04:26:36;9.90;;;7.70;;
8714;SDS011;4394;51.208;8.904;2023-04-15T04:29:27;9.67;;;7.33;;
8714;SDS011;4394;51.208;8.904;2023-04-15T04:32:19;9.73;;;7.33;;
8714;SDS011;4394;51.208;8.904;2023-04-15T04:35:09;11.17;;;6.97;;
8714;SDS011;4394;51.208;8.904;2023-04-15T04:37:59;10.13;;;7.47;;
8714;SDS011;4394;51.208;8.904;2023-04-15T04:40:49;10.33;;;7.60;;
8714;SDS011;4394;51.208;8.904;2023-04-15T04:43:39;9.97;;;7.33;;
8714;SDS011;4394;51.208;8.904;2023-04-15T04:46:29;11.40;;;7.93;;
8714;SDS011;4394;51.208;8.904;2023-04-15T04:49:21;11.33;;;7.10;;
8714;SDS011;4394;51.208;8.904;2023-04-15T04:52:14;10.67;;;6.40;;
8714;SDS011;4394;51.208;8.904;2023-04-15T04:55:09;9.23;;;7.10;;
8714;SDS011;4394;51.208;8.904;2023-04-15T04:57:59;10.03;;;7.70;;
8714;SDS011;4394;51.208;8.904;2023-04-15T05:00:49;10.30;;;7.17;;
8714;SDS011;4394;51.208;8.904;2023-04-15T05:03:39;9.77;;;6.83;;
8714;SDS011;4394;51.208;8.904;2023-04-15T05:06:31;9.83;;;6.77;;
8714;SDS011;4394;51.208;8.904;2023-04-15T05:09:23;10.83;;;7.33;;
8714;SDS011;4394;51.208;8.904;2023-04-15T05:12:13;9.70;;;7.20;;
8714;SDS011;4394;51.208;8.904;2023-04-15T05:15:04;11.23;;;7.07;;
8714;SDS011;4394;51.208;8.904;2023-04-15T05:17:59;10.00;;;6.93;;
8714;SDS011;4394;51.208;8.904;2023-04-15T05:20:49;9.33;;;6.73;;
8714;SDS011;4394;51.208;8.904;2023-04-15T05:23:41;9.20;;;6.90;;
8714;SDS011;4394;51.208;8.904;2023-04-15T05:26:35;8.80;;;6.73;;
8714;SDS011;4394;51.208;8.904;2023-04-15T05:29:29;9.97;;;6.63;;
8714;SDS011;4394;51.208;8.904;2023-04-15T05:32:18;12.03;;;7.13;;
8714;SDS011;4394;51.208;8.904;2023-04-15T05:35:09;9.43;;;7.13;;
8714;SDS011;4394;51.208;8.904;2023-04-15T05:37:58;10.50;;;6.63;;
8714;SDS011;4394;51.208;8.904;2023-04-15T05:40:54;9.17;;;6.80;;
8714;SDS011;4394;51.208;8.904;2023-04-15T05:43:50;10.40;;;7.63;;
8714;SDS011;4394;51.208;8.904;2023-04-15T05:46:41;8.67;;;6.53;;
8714;SDS011;4394;51.208;8.904;2023-04-15T05:49:29;10.07;;;7.10;;
8714;SDS011;4394;51.208;8.904;2023-04-15T05:52:18;9.73;;;7.37;;
8714;SDS011;4394;51.208;8.904;2023-04-15T05:55:07;13.70;;;8.07;;
8714;SDS011;4394;51.208;8.904;2023-04-15T05:57:57;11.93;;;8.37;;
8714;SDS011;4394;51.208;8.904;2023-04-15T06:00:46;10.60;;;8.13;;
8714;SDS011;4394;51.208;8.904;2023-04-15T06:03:34;11.77;;;7.50;;
8714;SDS011;4394;51.208;8.904;2023-04-15T06:06:23;11.17;;;8.10;;
8714;SDS011;4394;51.208;8.904;2023-04-15T06:09:12;13.03;;;8.67;;
8714;SDS011;4394;51.208;8.904;2023-04-15T06:12:01;12.63;;;8.50;;
8714;SDS011;4394;51.208;8.904;2023-04-15T06:14:51;11.07;;;8.40;;
8714;SDS011;4394;51.208;8.904;2023-04-15T06:17:39;11.93;;;8.73;;
8714;SDS011;4394;51.208;8.904;2023-04-15T06:20:27;13.73;;;9.43;;
8714;SDS011;4394;51.208;8.904;2023-04-15T06:23:15;13.50;;;9.40;;
8714;SDS011;4394;51.208;8.904;2023-04-15T06:26:04;12.93;;;9.20;;
8714;SDS011;4394;51.208;8.904;2023-04-15T06:28:52;13.40;;;8.60;;
8714;SDS011;4394;51.208;8.904;2023-04-15T06:31:42;11.67;;;8.47;;
8714;SDS011;4394;51.208;8.904;2023-04-15T06:34:31;12.87;;;8.37;;
8714;SDS011;4394;51.208;8.904;2023-04-15T06:37:20;11.73;;;8.37;;
8714;SDS011;4394;51.208;8.904;2023-04-15T06:40:08;10.70;;;7.87;;
8714;SDS011;4394;51.208;8.904;2023-04-15T06:42:57;11.50;;;7.63;;
8714;SDS011;4394;51.208;8.904;2023-04-15T06:45:45;10.97;;;7.70;;
8714;SDS011;4394;51.208;8.904;2023-04-15T06:48:35;11.43;;;7.63;;
8714;SDS011;4394;51.208;8.904;2023-04-15T06:51:24;11.33;;;7.53;;
8714;SDS011;4394;51.208;8.904;2023-04-15T06:54:12;9.97;;;7.60;;
8714;SDS011;4394;51.208;8.904;2023-04-15T06:57:01;10.27;;;7.53;;
8714;SDS011;4394;51.208;8.904;2023-04-15T06:59:49;11.30;;;7.20;;
8714;SDS011;4394;51.208;8.904;2023-04-15T07:02:40;11.37;;;7.20;;
8714;SDS011;4394;51.208;8.904;2023-04-15T07:05:30;9.87;;;7.13;;
8714;SDS011;4394;51.208;8.904;2023-04-15T07:08:19;11.10;;;7.80;;
8714;SDS011;4394;51.208;8.904;2023-04-15T07:11:07;10.80;;;7.57;;
8714;SDS011;4394;51.208;8.904;2023-04-15T07:13:56;9.70;;;7.10;;
8714;SDS011;4394;51.208;8.904;2023-04-15T07:16:44;11.60;;;7.70;;
8714;SDS011;4394;51.208;8.904;2023-04-15T07:19:33;10.57;;;6.93;;
8714;SDS011;4394;51.208;8.904;2023-04-15T07:22:23;11.93;;;7.40;;
8714;SDS011;4394;51.208;8.904;2023-04-15T07:25:12;9.07;;;6.43;;
8714;SDS011;4394;51.208;8.904;2023-04-15T07:28:00;10.77;;;7.37;;
8714;SDS011;4394;51.208;8.904;2023-04-15T07:30:48;9.13;;;7.07;;
8714;SDS011;4394;51.208;8.904;2023-04-15T07:33:37;10.93;;;7.93;;
8714;SDS011;4394;51.208;8.904;2023-04-15T07:36:25;10.17;;;7.10;;
8714;SDS011;4394;51.208;8.904;2023-04-15T07:39:16;11.27;;;7.63;;
8714;SDS011;4394;51.208;8.904;2023-04-15T07:42:04;12.70;;;8.10;;
8714;SDS011;4394;51.208;8.904;2023-04-15T07:44:52;10.50;;;7.40;;
8714;SDS011;4394;51.208;8.904;2023-04-15T07:47:41;10.67;;;7.83;;
8714;SDS011;4394;51.208;8.904;2023-04-15T07:50:29;11.33;;;8.00;;
8714;SDS011;4394;51.208;8.904;2023-04-15T07:53:17;12.23;;;8.20;;
8714;SDS011;4394;51.208;8.904;2023-04-15T07:56:08;12.53;;;8.23;;
8714;SDS011;4394;51.208;8.904;2023-04-15T07:58:57;12.43;;;8.33;;
8714;SDS011;4394;51.208;8.904;2023-04-15T08:01:47;13.33;;;8.50;;
8714;SDS011;4394;51.208;8.904;2023-04-15T08:04:36;11.80;;;7.90;;
8714;SDS011;4394;51.208;8.904;2023-04-15T08:07:24;13.07;;;8.37;;
8714;SDS011;4394;51.208;8.904;2023-04-15T08:10:13;12.47;;;8.37;;
8714;SDS011;4394;51.208;8.904;2023-04-15T08:13:03;12.27;;;8.43;;
8714;SDS011;4394;51.208;8.904;2023-04-15T08:15:53;15.63;;;9.50;;
8714;SDS011;4394;51.208;8.904;2023-04-15T08:19:01;13.37;;;8.67;;
8714;SDS011;4394;51.208;8.904;2023-04-15T08:21:50;15.47;;;10.00;;
8714;SDS011;4394;51.208;8.904;2023-04-15T08:24:38;16.10;;;9.43;;
8714;SDS011;4394;51.208;8.904;2023-04-15T08:27:27;13.43;;;8.50;;
8714;SDS011;4394;51.208;8.904;2023-04-15T08:30:18;11.87;;;8.43;;
8714;SDS011;4394;51.208;8.904;2023-04-15T08:33:07;14.13;;;8.60;;
8714;SDS011;4394;51.208;8.904;2023-04-15T08:35:55;11.73;;;7.90;;
8714;SDS011;4394;51.208;8.904;2023-04-15T08:38:44;14.37;;;8.77;;
8714;SDS011;4394;51.208;8.904;2023-04-15T08:41:33;12.30;;;7.73;;
8714;SDS011;4394;51.208;8.904;2023-04-15T08:44:28;11.07;;;7.90;;
8714;SDS011;4394;51.208;8.904;2023-04-15T08:47:19;12.53;;;8.23;;
8714;SDS011;4394;51.208;8.904;2023-04-15T08:50:09;10.90;;;6.93;;
8714;SDS011;4394;51.208;8.904;2023-04-15T08:52:58;11.83;;;7.50;;
8714;SDS011;4394;51.208;8.904;2023-04-15T08:55:50;9.80;;;6.93;;
8714;SDS011;4394;51.208;8.904;2023-04-15T08:58:39;11.60;;;7.17;;
8714;SDS011;4394;51.208;8.904;2023-04-15T09:01:30;9.90;;;6.40;;
8714;SDS011;4394;51.208;8.904;2023-04-15T09:04:21;10.57;;;6.83;;
8714;SDS011;4394;51.208;8.904;2023-04-15T09:07:09;9.57;;;6.47;;
8714;SDS011;4394;51.208;8.904;2023-04-15T09:09:57;8.40;;;6.13;;
8714;SDS011;4394;51.208;8.904;2023-04-15T09:12:45;8.87;;;6.33;;
8714;SDS011;4394;51.208;8.904;2023-04-15T09:15:34;9.63;;;6.20;;
8714;SDS011;4394;51.208;8.904;2023-04-15T09:18:28;7.57;;;6.07;;
8714;SDS011;4394;51.208;8.904;2023-04-15T09:21:19;7.77;;;5.80;;
8714;SDS011;4394;51.208;8.904;2023-04-15T09:24:08;7.67;;;5.70;;
8714;SDS011;4394;51.208;8.904;2023-04-15T09:26:57;7.77;;;5.67;;
8714;SDS011;4394;51.208;8.904;2023-04-15T09:29:48;8.10;;;5.77;;
8714;SDS011;4394;51.208;8.904;2023-04-15T09:32:37;9.13;;;6.03;;
8714;SDS011;4394;51.208;8.904;2023-04-15T09:35:36;6.07;;;4.80;;
8714;SDS011;4394;51.208;8.904;2023-04-15T09:38:26;8.03;;;5.30;;
8714;SDS011;4394;51.208;8.904;2023-04-15T09:41:15;6.57;;;5.20;;
8714;SDS011;4394;51.208;8.904;2023-04-15T09:44:05;8.47;;;5.60;;
8714;SDS011;4394;51.208;8.904;2023-04-15T09:46:54;7.77;;;5.33;;
8714;SDS011;4394;51.208;8.904;2023-04-15T09:49:50;7.30;;;5.33;;
8714;SDS011;4394;51.208;8.904;2023-04-15T09:52:43;8.47;;;5.83;;
8714;SDS011;4394;51.208;8.904;2023-04-15T09:55:33;7.50;;;5.57;;
8714;SDS011;4394;51.208;8.904;2023-04-15T09:58:24;7.20;;;5.37;;
8714;SDS011;4394;51.208;8.904;2023-04-15T10:01:14;7.27;;;5.97;;
8714;SDS011;4394;51.208;8.904;2023-04-15T10:04:02;9.23;;;6.30;;
8714;SDS011;4394;51.208;8.904;2023-04-15T10:06:52;9.17;;;6.47;;
8714;SDS011;4394;51.208;8.904;2023-04-15T10:09:42;7.63;;;6.17;;
8714;SDS011;4394;51.208;8.904;2023-04-15T10:12:34;9.30;;;6.77;;
8714;SDS011;4394;51.208;8.904;2023-04-15T10:15:24;8.90;;;6.90;;
8714;SDS011;4394;51.208;8.904;2023-04-15T10:18:15;8.93;;;6.70;;
8714;SDS011;4394;51.208;8.904;2023-04-15T10:21:05;8.53;;;6.40;;
8714;SDS011;4394;51.208;8.904;2023-04-15T10:23:55;10.03;;;6.70;;
8714;SDS011;4394;51.208;8.904;2023-04-15T10:26:45;8.83;;;6.33;;
8714;SDS011;4394;51.208;8.904;2023-04-15T10:29:35;10.00;;;7.00;;
8714;SDS011;4394;51.208;8.904;2023-04-15T10:32:24;9.30;;;7.03;;
8714;SDS011;4394;51.208;8.904;2023-04-15T10:35:14;9.40;;;6.77;;
8714;SDS011;4394;51.208;8.904;2023-04-15T10:41:23;10.33;;;7.00;;
8714;SDS011;4394;51.208;8.904;2023-04-15T10:44:14;9.83;;;6.90;;
8714;SDS011;4394;51.208;8.904;2023-04-15T10:47:08;9.40;;;7.40;;
8714;SDS011;4394;51.208;8.904;2023-04-15T10:50:00;10.30;;;7.27;;
8714;SDS011;4394;51.208;8.904;2023-04-15T10:52:51;12.40;;;7.70;;
8714;SDS011;4394;51.208;8.904;2023-04-15T10:55:43;9.40;;;7.00;;
8714;SDS011;4394;51.208;8.904;2023-04-15T10:58:41;9.33;;;6.63;;
8714;SDS011;4394;51.208;8.904;2023-04-15T11:01:51;9.57;;;7.10;;
8714;SDS011;4394;51.208;8.904;2023-04-15T11:04:54;9.20;;;6.63;;
8714;SDS011;4394;51.208;8.904;2023-04-15T11:07:52;8.87;;;6.43;;
8714;SDS011;4394;51.208;8.904;2023-04-15T11:10:51;8.77;;;6.47;;
8714;SDS011;4394;51.208;8.904;2023-04-15T11:13:46;10.43;;;7.03;;
8714;SDS011;4394;51.208;8.904;2023-04-15T11:16:41;10.20;;;6.30;;
8714;SDS011;4394;51.208;8.904;2023-04-15T11:19:37;7.70;;;5.90;;
8714;SDS011;4394;51.208;8.904;2023-04-15T11:22:27;8.20;;;6.07;;
8714;SDS011;4394;51.208;8.904;2023-04-15T11:25:23;7.60;;;6.20;;
8714;SDS011;4394;51.208;8.904;2023-04-15T11:28:12;9.23;;;6.30;;
8714;SDS011;4394;51.208;8.904;2023-04-15T11:31:05;8.97;;;6.13;;
8714;SDS011;4394;51.208;8.904;2023-04-15T11:33:56;8.07;;;5.67;;
8714;SDS011;4394;51.208;8.904;2023-04-15T11:36:47;7.30;;;5.17;;
8714;SDS011;4394;51.208;8.904;2023-04-15T11:39:38;7.33;;;5.23;;
8714;SDS011;4394;51.208;8.904;2023-04-15T11:42:27;7.33;;;5.40;;
8714;SDS011;4394;51.208;8.904;2023-04-15T11:45:34;5.77;;;4.57;;
8714;SDS011;4394;51.208;8.904;2023-04-15T11:48:24;5.73;;;4.57;;
8714;SDS011;4394;51.208;8.904;2023-04-15T11:51:13;5.93;;;3.90;;
8714;SDS011;4394;51.208;8.904;2023-04-15T11:54:01;5.50;;;3.83;;
8714;SDS011;4394;51.208;8.904;2023-04-15T11:56:52;4.80;;;3.73;;
8714;SDS011;4394;51.208;8.904;2023-04-15T11:59:42;3.60;;;3.30;;
8714;SDS011;4394;51.208;8.904;2023-04-15T12:02:31;4.23;;;3.03;;
8714;SDS011;4394;51.208;8.904;2023-04-15T12:05:23;4.23;;;3.63;;
8714;SDS011;4394;51.208;8.904;2023-04-15T12:08:11;4.20;;;3.30;;
8714;SDS011;4394;51.208;8.904;2023-04-15T12:11:00;4.10;;;3.20;;
8714;SDS011;4394;51.208;8.904;2023-04-15T12:13:49;3.80;;;2.90;;
8714;SDS011;4394;51.208;8.904;2023-04-15T12:16:38;4.20;;;3.00;;
8714;SDS011;4394;51.208;8.904;2023-04-15T12:19:35;4.40;;;3.27;;
8714;SDS011;4394;51.208;8.904;2023-04-15T12:22:24;3.60;;;2.80;;
8714;SDS011;4394;51.208;8.904;2023-04-15T12:25:13;4.93;;;3.13;;
8714;SDS011;4394;51.208;8.904;2023-04-15T12:28:01;3.73;;;2.67;;
8714;SDS011;4394;51.208;8.904;2023-04-15T12:31:00;3.27;;;2.67;;
8714;SDS011;4394;51.208;8.904;2023-04-15T12:33:54;2.97;;;2.53;;
8714;SDS011;4394;51.208;8.904;2023-04-15T12:36:43;2.50;;;2.17;;
8714;SDS011;4394;51.208;8.904;2023-04-15T12:39:33;2.53;;;2.10;;
8714;SDS011;4394;51.208;8.904;2023-04-15T12:42:22;2.63;;;2.17;;
8714;SDS011;4394;51.208;8.904;2023-04-15T12:45:10;2.30;;;2.00;;
8714;SDS011;4394;51.208;8.904;2023-04-15T12:48:00;2.60;;;2.27;;
8714;SDS011;4394;51.208;8.904;2023-04-15T12:50:49;2.27;;;2.03;;
8714;SDS011;4394;51.208;8.904;2023-04-15T12:53:37;2.40;;;2.20;;
8714;SDS011;4394;51.208;8.904;2023-04-15T12:56:25;2.63;;;2.13;;
8714;SDS011;4394;51.208;8.904;2023-04-15T12:59:13;2.27;;;1.77;;
8714;SDS011;4394;51.208;8.904;2023-04-15T13:02:03;3.07;;;2.27;;
8714;SDS011;4394;51.208;8.904;2023-04-15T13:04:53;2.47;;;2.00;;
8714;SDS011;4394;51.208;8.904;2023-04-15T13:07:42;2.63;;;2.20;;
8714;SDS011;4394;51.208;8.904;2023-04-15T13:10:30;2.93;;;2.10;;
8714;SDS011;4394;51.208;8.904;2023-04-15T13:13:19;2.67;;;2.20;;
8714;SDS011;4394;51.208;8.904;2023-04-15T13:16:07;2.47;;;1.97;;
8714;SDS011;4394;51.208;8.904;2023-04-15T13:18:56;2.23;;;1.87;;
8714;SDS011;4394;51.208;8.904;2023-04-15T13:21:45;2.57;;;1.93;;
8714;SDS011;4394;51.208;8.904;2023-04-15T13:24:34;2.20;;;2.00;;
8714;SDS011;4394;51.208;8.904;2023-04-15T13:27:22;2.10;;;1.90;;
8714;SDS011;4394;51.208;8.904;2023-04-15T13:30:11;2.77;;;1.97;;
8714;SDS011;4394;51.208;8.904;2023-04-15T13:33:00;2.27;;;1.70;;
8714;SDS011;4394;51.208;8.904;2023-04-15T13:35:48;2.23;;;1.90;;
8714;SDS011;4394;51.208;8.904;2023-04-15T13:38:37;2.30;;;1.57;;
8714;SDS011;4394;51.208;8.904;2023-04-15T13:41:25;2.50;;;1.60;;
8714;SDS011;4394;51.208;8.904;2023-04-15T13:44:14;1.80;;;1.53;;
8714;SDS011;4394;51.208;8.904;2023-04-15T13:47:02;2.17;;;1.50;;
8714;SDS011;4394;51.208;8.904;2023-04-15T13:49:51;1.60;;;1.50;;
8714;SDS011;4394;51.208;8.904;2023-04-15T13:52:41;1.57;;;1.10;;
8714;SDS011;4394;51.208;8.904;2023-04-15T13:55:31;1.60;;;1.27;;
8714;SDS011;4394;51.208;8.904;2023-04-15T13:58:20;1.20;;;1.10;;
8714;SDS011;4394;51.208;8.904;2023-04-15T14:01:08;1.48;;;1.33;;
8714;SDS011;4394;51.208;8.904;2023-04-15T14:03:57;1.50;;;1.20;;
8714;SDS011;4394;51.208;8.904;2023-04-15T14:06:45;1.37;;;1.00;;
8714;SDS011;4394;51.208;8.904;2023-04-15T14:09:35;1.80;;;0.97;;
8714;SDS011;4394;51.208;8.904;2023-04-15T14:12:30;1.80;;;1.17;;
8714;SDS011;4394;51.208;8.904;2023-04-15T14:15:18;1.00;;;0.90;;
8714;SDS011;4394;51.208;8.904;2023-04-15T14:18:07;1.10;;;1.00;;
8714;SDS011;4394;51.208;8.904;2023-04-15T14:20:56;1.30;;;1.20;;
8714;SDS011;4394;51.208;8.904;2023-04-15T14:23:44;1.47;;;0.83;;
8714;SDS011;4394;51.208;8.904;2023-04-15T14:26:32;0.70;;;0.60;;
8714;SDS011;4394;51.208;8.904;2023-04-15T14:29:22;1.00;;;0.73;;
8714;SDS011;4394;51.208;8.904;2023-04-15T14:32:10;0.97;;;0.77;;
8714;SDS011;4394;51.208;8.904;2023-04-15T14:35:01;1.73;;;0.90;;
8714;SDS011;4394;51.208;8.904;2023-04-15T14:37:49;1.17;;;0.90;;
8714;SDS011;4394;51.208;8.904;2023-04-15T14:40:37;2.10;;;1.00;;
8714;SDS011;4394;51.208;8.904;2023-04-15T14:43:27;1.03;;;0.80;;
8714;SDS011;4394;51.208;8.904;2023-04-15T14:46:17;1.07;;;0.90;;
8714;SDS011;4394;51.208;8.904;2023-04-15T14:49:06;1.30;;;1.10;;
8714;SDS011;4394;51.208;8.904;2023-04-15T14:51:55;1.10;;;1.00;;
8714;SDS011;4394;51.208;8.904;2023-04-15T14:54:43;1.27;;;1.17;;
8714;SDS011;4394;51.208;8.904;2023-04-15T14:57:31;1.03;;;0.93;;
8714;SDS011;4394;51.208;8.904;2023-04-15T15:00:20;1.43;;;1.30;;
8714;SDS011;4394;51.208;8.904;2023-04-15T15:03:10;1.93;;;1.50;;
8714;SDS011;4394;51.208;8.904;2023-04-15T15:05:59;2.00;;;1.60;;
8714;SDS011;4394;51.208;8.904;2023-04-15T15:08:47;2.03;;;1.80;;
8714;SDS011;4394;51.208;8.904;2023-04-15T15:11:36;1.97;;;1.77;;
8714;SDS011;4394;51.208;8.904;2023-04-15T15:14:24;2.17;;;1.63;;
8714;SDS011;4394;51.208;8.904;2023-04-15T15:17:12;2.23;;;1.77;;
8714;SDS011;4394;51.208;8.904;2023-04-15T15:20:03;2.37;;;1.90;;
8714;SDS011;4394;51.208;8.904;2023-04-15T15:22:52;2.37;;;2.17;;
8714;SDS011;4394;51.208;8.904;2023-04-15T15:25:40;2.37;;;2.03;;
8714;SDS011;4394;51.208;8.904;2023-04-15T15:28:29;2.13;;;1.90;;
8714;SDS011;4394;51.208;8.904;2023-04-15T15:31:17;2.37;;;2.10;;
8714;SDS011;4394;51.208;8.904;2023-04-15T15:34:05;2.23;;;2.03;;
8714;SDS011;4394;51.208;8.904;2023-04-15T15:36:55;2.70;;;2.20;;
8714;SDS011;4394;51.208;8.904;2023-04-15T15:39:43;2.20;;;2.00;;
8714;SDS011;4394;51.208;8.904;2023-04-15T15:42:32;2.93;;;2.13;;
8714;SDS011;4394;51.208;8.904;2023-04-15T15:45:21;2.20;;;1.97;;
8714;SDS011;4394;51.208;8.904;2023-04-15T15:48:09;3.17;;;2.00;;
8714;SDS011;4394;51.208;8.904;2023-04-15T15:50:57;2.20;;;1.80;;
8714;SDS011;4394;51.208;8.904;2023-04-15T15:53:49;3.60;;;2.17;;
8714;SDS011;4394;51.208;8.904;2023-04-15T15:56:46;3.80;;;2.23;;
8714;SDS011;4394;51.208;8.904;2023-04-15T15:59:35;2.30;;;2.10;;
8714;SDS011;4394;51.208;8.904;2023-04-15T16:02:26;3.27;;;2.17;;
8714;SDS011;4394;51.208;8.904;2023-04-15T16:05:39;2.40;;;2.00;;
8714;SDS011;4394;51.208;8.904;2023-04-15T16:08:34;2.70;;;2.40;;
8714;SDS011;4394;51.208;8.904;2023-04-15T16:11:24;4.40;;;2.83;;
8714;SDS011;4394;51.208;8.904;2023-04-15T16:14:13;2.90;;;2.37;;
8714;SDS011;4394;51.208;8.904;2023-04-15T16:17:01;2.93;;;2.50;;
8714;SDS011;4394;51.208;8.904;2023-04-15T16:19:49;3.33;;;2.23;;
8714;SDS011;4394;51.208;8.904;2023-04-15T16:22:46;3.13;;;2.10;;
8714;SDS011;4394;51.208;8.904;2023-04-15T16:25:34;3.27;;;2.57;;
8714;SDS011;4394;51.208;8.904;2023-04-15T16:28:24;3.20;;;2.40;;
8714;SDS011;4394;51.208;8.904;2023-04-15T16:31:12;2.50;;;2.30;;
8714;SDS011;4394;51.208;8.904;2023-04-15T16:34:01;2.97;;;2.10;;
8714;SDS011;4394;51.208;8.904;2023-04-15T16:36:49;2.70;;;2.27;;
8714;SDS011;4394;51.208;8.904;2023-04-15T16:39:38;2.80;;;2.17;;
8714;SDS011;4394;51.208;8.904;2023-04-15T16:42:26;2.83;;;2.10;;
8714;SDS011;4394;51.208;8.904;2023-04-15T16:45:17;3.17;;;2.20;;
8714;SDS011;4394;51.208;8.904;2023-04-15T16:48:05;2.47;;;1.93;;
8714;SDS011;4394;51.208;8.904;2023-04-15T16:50:54;2.70;;;1.93;;
8714;SDS011;4394;51.208;8.904;2023-04-15T16:53:43;2.17;;;1.93;;
8714;SDS011;4394;51.208;8.904;2023-04-15T16:56:31;2.53;;;2.10;;
8714;SDS011;4394;51.208;8.904;2023-04-15T16:59:19;2.27;;;1.90;;
8714;SDS011;4394;51.208;8.904;2023-04-15T17:02:10;2.00;;;1.80;;
8714;SDS011;4394;51.208;8.904;2023-04-15T17:04:59;2.27;;;2.07;;
8714;SDS011;4394;51.208;8.904;2023-04-15T17:07:48;3.33;;;2.03;;
8714;SDS011;4394;51.208;8.904;2023-04-15T17:10:37;2.10;;;1.80;;
8714;SDS011;4394;51.208;8.904;2023-04-15T17:13:25;3.67;;;2.20;;
8714;SDS011;4394;51.208;8.904;2023-04-15T17:16:13;2.97;;;2.20;;
8714;SDS011;4394;51.208;8.904;2023-04-15T17:19:03;2.63;;;1.97;;
8714;SDS011;4394;51.208;8.904;2023-04-15T17:21:51;4.10;;;2.10;;
8714;SDS011;4394;51.208;8.904;2023-04-15T17:24:40;2.33;;;2.00;;
8714;SDS011;4394;51.208;8.904;2023-04-15T17:27:28;3.20;;;2.30;;
8714;SDS011;4394;51.208;8.904;2023-04-15T17:30:17;2.87;;;2.17;;
8714;SDS011;4394;51.208;8.904;2023-04-15T17:33:06;2.63;;;1.97;;